Terminal Aerodrome Forecast
Issued by NWS Paducah, KY

Home | Current Version | Previous Version | Text Only | Print | Product List | Glossary On
Versions: 1 2 3 4 5 6 7 8 9 10 11 12 13 14 15 16
000
FTUS43 KPAH 172200 AAA
TAFEVV
TAF AMD
KEVV 172206Z 1722/1818 27010G19KT P6SM SCT050
     FM180000 29006KT P6SM BKN040
     FM181400 31009KT P6SM BKN040=

USA.gov is the U.S. government's official web portal to all federal, state and local government web resources and services.